Flight Track Log - Related Links

Times and Time Zones

All times are in EDT time to prevent confusion due to time zone crossing. See the UAL4695 flight status page for this flight to view local times or setup timezone preferences in your user account.


Time Position Orientation Groundspeed Altitude Reporting Facility
EDT Latitude Longitude Course Direction KTS MPH feet Rate Location/Type
Tue 10:38:54 AM 35.8886 -78.7711 353° North 166 191 1,500  Level Washington Center
Tue 10:39:34 AM 35.9244 -78.7522 23° Northeast 193 222 3,700 2,653 Climbing Washington Center
Tue 10:40:29 AM 35.9753 -78.7258 23° Northeast 239 275 5,700 2,661 Climbing Washington Center
Tue 10:41:38 AM 36.0494 -78.6825 25° Northeast 256 295 9,200 2,930 Climbing Washington Center
Tue 10:42:00 AM 36.2036 -78.4983 39° Northeast  Level Estimated
Tue 10:42:38 AM 36.1172 -78.6389 27° Northeast 261 300 12,000  Level Washington Center
Tue 10:43:00 AM 36.2850 -78.4256 15° North  Level Estimated
Tue 10:43:36 AM 36.1831 -78.5925 30° Northeast 267 307 14,300  Level Washington Center
Tue 10:44:00 AM 36.3846 -78.4406 353° North  Level FlightAware Approximate
Tue 10:44:36 AM 36.2489 -78.5489 28° Northeast 280 322 16,500  Level Washington Center
Tue 10:45:37 AM 36.3294 -78.4975 27° Northeast 285 328 18,500 1,983 Climbing Washington Center
Tue 10:46:37 AM 36.4056 -78.4539 25° Northeast 290 334 20,500 1,686 Climbing Washington Center
Tue 10:47:38 AM 36.4881 -78.4106 23° Northeast 302 348 21,900 1,289 Climbing Washington Center
Tue 10:48:38 AM 36.5769 -78.3594 25° Northeast 323 372 23,100 1,424 Climbing Washington Center
Tue 10:49:36 AM 36.6697 -78.3108 23° Northeast 344 396 24,700 1,576 Climbing Washington Center
Tue 10:50:36 AM 36.7628 -78.2572 25° Northeast 349 402 26,200 1,140 Climbing Washington Center
Tue 10:51:37 AM 36.8578 -78.2058 23° Northeast 362 417 27,000 393 Climbing Washington Center
Tue 10:52:38 AM 36.9361 -78.1592 25° Northeast 368 423 27,000  Level Washington Center
Tue 10:53:35 AM 37.0522 -78.0953 24° Northeast 368 423 27,000  Level Washington Center
Tue 10:54:36 AM 37.1492 -78.0414 24° Northeast 368 423 27,000  Level Washington Center
Tue 10:55:37 AM 37.2461 -77.9894 23° Northeast 373 429 27,000  Level Washington Center
Tue 10:56:38 AM 37.3411 -77.9350 24° Northeast 373 429 27,000  Level Washington Center
Tue 10:57:36 AM 37.4381 -77.8806 24° Northeast 373 429 27,000  Level Washington Center
Tue 10:58:37 AM 37.5353 -77.8231 25° Northeast 373 429 27,000  Level Washington Center
Tue 10:59:38 AM 37.6200 -77.7469 35° Northeast 373 429 27,000  Level Washington Center
Tue 11:00:36 AM 37.7047 -77.6681 36° Northeast 373 429 27,000  Level Washington Center
Tue 11:01:36 AM 37.7917 -77.5917 35° Northeast 373 429 27,000  Level Washington Center
Tue 11:02:37 AM 37.8764 -77.5150 36° Northeast 373 429 27,000  Level Washington Center
Tue 11:03:38 AM 37.9608 -77.4353 37° Northeast 373 429 27,000  Level Washington Center
Tue 11:04:36 AM 38.0350 -77.3686 35° Northeast 368 423 27,000  Level Washington Center
Tue 11:05:37 AM 38.1194 -77.2889 37° Northeast 363 418 27,000  Level Washington Center
Tue 11:06:38 AM 38.2125 -77.2064 35° Northeast 376 433 27,000  Level Washington Center
Tue 11:07:38 AM 38.3117 -77.1158 36° Northeast 414 476 27,000  Level Washington Center
Tue 11:08:36 AM 38.4086 -77.0250 36° Northeast 435 501 27,000  Level Washington Center
Tue 11:09:36 AM 38.5056 -76.9342 36° Northeast 435 501 27,000  Level Washington Center
Tue 11:10:37 AM 38.6003 -76.8483 35° Northeast 430 495 27,000  Level Washington Center
Tue 11:11:38 AM 38.6931 -76.7567 38° Northeast 425 489 27,000  Level Washington Center
Tue 11:12:36 AM 38.7772 -76.6622 41° Northeast 414 476 27,000  Level Washington Center
Tue 11:13:36 AM 38.8572 -76.5700 42° Northeast 393 452 27,000  Level Washington Center
Tue 11:14:37 AM 38.9392 -76.4775 41° Northeast 386 444 27,000  Level Washington Center
Tue 11:15:38 AM 39.0211 -76.3825 42° Northeast 386 444 27,000  Level Washington Center
Tue 11:16:36 AM 39.1031 -76.2844 43° Northeast 386 444 27,000  Level Washington Center
Tue 11:17:37 AM 39.1850 -76.1914 41° Northeast 386 444 27,000 -99 Level Washington Center
Tue 11:18:37 AM 39.2667 -76.0983 41° Northeast 391 450 26,800 -545 Descending Washington Center
Tue 11:19:38 AM 39.3461 -76.0050 42° Northeast 391 450 25,900 -992 Descending Washington Center
Tue 11:20:38 AM 39.4278 -75.9114 42° Northeast 391 450 24,800 -1,100 Descending Washington Center
Tue 11:21:38 AM 39.5031 -75.8175 44° Northeast 385 443 23,700 -1,169 Descending Washington Center
Tue 11:22:36 AM 39.5803 -75.7261 42° Northeast 374 430 22,500 -1,210 Descending Washington Center
Tue 11:23:37 AM 39.6553 -75.6372 42° Northeast 369 425 21,300 -1,180 Descending Washington Center
Tue 11:24:38 AM 39.7322 -75.5456 42° Northeast 369 425 20,100 -1,361 Descending Washington Center
Tue 11:25:36 AM 39.8053 -75.4592 42° Northeast 369 425 18,600 -1,361 Descending Washington Center
Tue 11:26:37 AM 39.8739 -75.3753 43° Northeast 352 405 17,400 -1,525 Descending Washington Center
Tue 11:27:38 AM 39.9403 -75.2939 43° Northeast 337 388 15,500 -1,884 Descending Washington Center
Tue 11:28:38 AM 40.0047 -75.2150 43° Northeast 325 374 13,600 -1,729 Descending Washington Center
Tue 11:29:36 AM 40.0669 -75.1361 44° Northeast 310 357 12,100 -1,376 Descending Washington Center
Tue 11:30:27 AM 40.1333 -75.0667 39° Northeast 294 338 11,100 -1,231 Descending New York TRACON
Tue 11:31:33 AM 40.1833 -75.0000 46° Northeast 256 295 9,700 -1,429 Descending New York TRACON
Tue 11:32:33 AM 40.2333 -74.9333 45° Northeast 272 313 8,100 -850 Descending New York TRACON
Tue 11:33:33 AM 40.2833 -74.8667 45° Northeast 258 297 8,000 -150 Descending New York TRACON
Tue 11:34:33 AM 40.3333 -74.7833 52° Northeast 264 304 7,800 -632 Descending New York TRACON
Tue 11:35:27 AM 40.3667 -74.7167 57° Northeast 269 310 6,800 -1,053 Descending New York TRACON
Tue 11:36:27 AM 40.3500 -74.6167 102° East 270 311 5,800 -857 Descending New York TRACON
Tue 11:37:33 AM 40.3333 -74.5333 105° East 234 269 5,000 -762 Descending New York TRACON
Tue 11:38:33 AM 40.3167 -74.4667 108° East 200 230 4,200 -950 Descending New York TRACON
Tue 11:39:33 AM 40.3333 -74.4000 72° East 204 235 3,100 -600 Descending New York TRACON
Tue 11:40:33 AM 40.3833 -74.3667 27° Northeast 189 217 3,000  Descending New York TRACON
Tue 11:41:33 AM 40.4167 -74.3333 37° Northeast 169 194 3,100  Climbing New York TRACON
Tue 11:42:39 AM 40.4667 -74.3000 27° Northeast 182 209 3,000 -50 Descending New York TRACON
Tue 11:43:33 AM 40.5167 -74.2833 14° North 179 206 3,000 -105 Level New York TRACON
Tue 11:44:33 AM 40.5500 -74.2500 37° Northeast 173 199 2,800 -550 Descending New York TRACON
Tue 11:45:33 AM 40.6000 -74.2333 14° North 174 200 1,900 -850 Descending New York TRACON
Tue 11:46:33 AM 40.6333 -74.2000 37° Northeast 148 170 1,100 -750 Descending New York TRACON
Tue 11:47:33 AM 40.6667 -74.1833 21° North 130 150 400 -700 Descending New York TRACON

Login

Don't have an account? Register now (free) for customized features, flight alerts, and more!